Time;durP1;ratioP1;P1;durP2;ratioP2;P2;SDS_P1;SDS_P2;PMS_P1;PMS_P2;Temp;Humidity;BMP_temperature;BMP_pressure;BME280_temperature;BME280_humidity;BME280_pressure;Samples;Min_cycle;Max_cycle;Signal;HPM_P1;HPM_P2
2023/12/22 00:03:11;;;;;;;38.90;24.33;;;;;;;;;;10279430;28;20461;-93
2023/12/22 00:08:14;;;;;;;38.28;23.08;;;;;;;;;;10265691;28;20419;-93
2023/12/22 00:13:17;;;;;;;37.87;24.07;;;;;;;;;;10257748;28;20416;-93
2023/12/22 00:18:20;;;;;;;38.00;24.77;;;;;;;;;;10298296;28;20436;-91
2023/12/22 00:23:22;;;;;;;40.08;24.83;;;;;;;;;;10278637;28;20467;-93
2023/12/22 00:28:26;;;;;;;38.83;24.92;;;;;;;;;;10305765;28;20407;-94
2023/12/22 00:33:28;;;;;;;42.45;24.98;;;;;;;;;;10287715;28;20469;-94
2023/12/22 00:38:31;;;;;;;38.87;24.40;;;;;;;;;;10286945;28;20485;-93
2023/12/22 00:43:35;;;;;;;39.30;25.45;;;;;;;;;;10267298;28;20439;-93
2023/12/22 00:48:37;;;;;;;41.13;24.25;;;;;;;;;;10269018;28;20903;-93
2023/12/22 00:53:39;;;;;;;38.07;23.73;;;;;;;;;;10285846;28;20903;-94
2023/12/22 00:58:43;;;;;;;43.53;25.33;;;;;;;;;;10263636;28;20456;-94
2023/12/22 01:03:46;;;;;;;40.85;25.95;;;;;;;;;;10260868;28;20412;-93
2023/12/22 01:08:49;;;;;;;42.80;26.88;;;;;;;;;;10265806;28;20414;-93
2023/12/22 01:13:53;;;;;;;40.13;26.30;;;;;;;;;;10281517;28;20901;-93
2023/12/22 01:18:56;;;;;;;44.63;26.25;;;;;;;;;;10282382;28;20987;-94
2023/12/22 01:23:59;;;;;;;45.47;26.43;;;;;;;;;;10280921;28;20443;-92
2023/12/22 01:29:02;;;;;;;41.15;25.42;;;;;;;;;;10266258;28;20483;-93
2023/12/22 01:34:05;;;;;;;41.72;25.55;;;;;;;;;;10289450;28;20477;-94
2023/12/22 01:39:07;;;;;;;43.67;25.42;;;;;;;;;;10280244;28;20960;-94
2023/12/22 01:44:11;;;;;;;43.87;24.83;;;;;;;;;;10257189;28;20438;-94
2023/12/22 01:49:15;;;;;;;34.20;22.43;;;;;;;;;;10273066;28;20487;-93
2023/12/22 01:54:18;;;;;;;40.70;23.27;;;;;;;;;;10271287;28;20510;-93
2023/12/22 01:59:21;;;;;;;36.95;24.25;;;;;;;;;;10269964;28;20430;-93
2023/12/22 02:04:25;;;;;;;38.83;23.77;;;;;;;;;;10290807;28;20414;-93
2023/12/22 02:09:27;;;;;;;38.38;24.83;;;;;;;;;;10284599;28;20462;-94
2023/12/22 02:14:32;;;;;;;38.47;23.93;;;;;;;;;;10284580;28;20499;-94
2023/12/22 02:19:43;;;;;;;39.10;24.35;;;;;;;;;;10285543;28;20430;-94
2023/12/22 02:24:46;;;;;;;33.70;20.83;;;;;;;;;;10290851;28;20872;-93
2023/12/22 02:29:52;;;;;;;32.83;19.80;;;;;;;;;;10293698;28;20408;-93
2023/12/22 02:34:58;;;;;;;30.27;19.25;;;;;;;;;;10273811;28;20414;-87
2023/12/22 02:40:03;;;;;;;34.17;19.50;;;;;;;;;;10278046;28;20422;-92
2023/12/22 02:45:07;;;;;;;32.60;20.15;;;;;;;;;;10269563;28;20467;-93
2023/12/22 02:50:10;;;;;;;33.90;20.83;;;;;;;;;;10283283;28;20402;-93
2023/12/22 02:55:14;;;;;;;37.55;21.45;;;;;;;;;;10300773;28;20540;-93
2023/12/22 03:00:17;;;;;;;36.67;22.90;;;;;;;;;;10311141;28;20508;-93
2023/12/22 03:05:19;;;;;;;33.30;21.63;;;;;;;;;;10291913;28;20410;-93
2023/12/22 03:10:23;;;;;;;38.92;23.08;;;;;;;;;;10291305;28;20423;-93
2023/12/22 03:15:26;;;;;;;37.47;23.33;;;;;;;;;;10271248;28;20420;-93
2023/12/22 03:20:29;;;;;;;38.85;22.80;;;;;;;;;;10284954;28;20834;-94
2023/12/22 03:25:32;;;;;;;37.70;22.93;;;;;;;;;;10284728;28;20953;-94
2023/12/22 03:30:37;;;;;;;38.67;23.23;;;;;;;;;;10295823;28;20412;-93
2023/12/22 03:35:40;;;;;;;38.95;23.55;;;;;;;;;;10306586;28;20943;-93
2023/12/22 03:40:43;;;;;;;37.50;22.85;;;;;;;;;;10284219;28;20435;-93
2023/12/22 03:45:46;;;;;;;35.38;22.92;;;;;;;;;;10283349;28;20795;-94
2023/12/22 03:50:48;;;;;;;34.67;22.58;;;;;;;;;;10286112;28;21163;-93
2023/12/22 03:55:52;;;;;;;39.87;23.33;;;;;;;;;;10285952;28;20412;-94
2023/12/22 04:00:55;;;;;;;37.97;22.93;;;;;;;;;;10287578;28;20530;-93
2023/12/22 04:05:57;;;;;;;34.92;20.25;;;;;;;;;;10279496;28;20422;-92
2023/12/22 04:11:01;;;;;;;39.72;22.35;;;;;;;;;;10291834;28;20769;-93
2023/12/22 04:16:05;;;;;;;33.30;20.73;;;;;;;;;;10277390;28;20406;-93
2023/12/22 04:21:07;;;;;;;34.63;21.00;;;;;;;;;;10272721;28;20447;-94
2023/12/22 04:26:11;;;;;;;33.88;20.00;;;;;;;;;;10285191;28;20480;-94
2023/12/22 04:31:13;;;;;;;32.63;20.70;;;;;;;;;;10296850;28;20462;-94
2023/12/22 04:36:16;;;;;;;30.90;18.53;;;;;;;;;;10276642;28;20415;-93
2023/12/22 04:41:19;;;;;;;30.52;18.15;;;;;;;;;;10287870;28;20477;-93
2023/12/22 04:46:22;;;;;;;27.25;17.42;;;;;;;;;;10265996;28;20405;-93
2023/12/22 04:51:25;;;;;;;29.52;17.73;;;;;;;;;;10260030;28;20947;-92
2023/12/22 04:56:29;;;;;;;25.88;15.63;;;;;;;;;;10278745;28;20501;-93
2023/12/22 05:01:31;;;;;;;22.67;14.50;;;;;;;;;;10283294;28;20460;-93
2023/12/22 05:06:34;;;;;;;21.70;13.85;;;;;;;;;;10273530;28;20465;-93
2023/12/22 05:11:38;;;;;;;20.13;13.60;;;;;;;;;;10279534;28;20450;-94
2023/12/22 05:16:40;;;;;;;19.37;12.07;;;;;;;;;;10282157;28;20473;-93
2023/12/22 05:21:42;;;;;;;20.55;12.52;;;;;;;;;;10273735;28;20793;-94
2023/12/22 05:26:46;;;;;;;16.48;10.70;;;;;;;;;;10277923;28;20414;-93
2023/12/22 05:31:49;;;;;;;16.10;10.63;;;;;;;;;;10275122;28;20489;-94
2023/12/22 05:36:51;;;;;;;16.02;11.00;;;;;;;;;;10292672;28;20458;-94
2023/12/22 05:41:55;;;;;;;16.13;10.55;;;;;;;;;;10272516;28;20431;-93
2023/12/22 05:46:57;;;;;;;17.25;10.57;;;;;;;;;;10288345;28;20420;-93
2023/12/22 05:52:00;;;;;;;18.50;11.88;;;;;;;;;;10274742;28;20457;-94
2023/12/22 05:57:06;;;;;;;17.40;11.82;;;;;;;;;;10295702;28;20465;-93
2023/12/22 06:02:08;;;;;;;18.60;11.18;;;;;;;;;;10283782;28;20500;-94
2023/12/22 06:07:11;;;;;;;15.50;10.48;;;;;;;;;;10272375;28;20412;-93
2023/12/22 06:12:15;;;;;;;19.35;11.63;;;;;;;;;;10291523;28;20460;-93
2023/12/22 06:17:20;;;;;;;20.55;12.40;;;;;;;;;;10307115;28;20985;-93
2023/12/22 06:22:23;;;;;;;23.80;14.80;;;;;;;;;;10297046;28;20426;-94
2023/12/22 06:27:29;;;;;;;29.93;17.07;;;;;;;;;;10315592;28;20423;-92
2023/12/22 06:32:32;;;;;;;28.90;16.73;;;;;;;;;;10289278;28;20413;-92
2023/12/22 06:37:35;;;;;;;28.15;16.33;;;;;;;;;;10283795;28;20461;-93
2023/12/22 06:42:39;;;;;;;28.58;18.13;;;;;;;;;;10277640;28;20546;-89
2023/12/22 06:47:41;;;;;;;32.13;19.08;;;;;;;;;;10265468;28;20891;-91
2023/12/22 06:52:44;;;;;;;32.63;19.27;;;;;;;;;;10272732;28;20479;-91
2023/12/22 06:57:48;;;;;;;30.10;19.15;;;;;;;;;;10277058;28;20428;-92
2023/12/22 07:02:50;;;;;;;30.25;19.60;;;;;;;;;;10268561;28;20431;-92
2023/12/22 07:07:52;;;;;;;31.33;19.95;;;;;;;;;;10267738;28;20418;-92
2023/12/22 07:12:56;;;;;;;32.17;19.50;;;;;;;;;;10278839;28;20418;-90
2023/12/22 07:17:59;;;;;;;32.88;19.95;;;;;;;;;;10266649;28;20869;-92
2023/12/22 07:23:01;;;;;;;33.50;19.02;;;;;;;;;;10282746;28;20784;-91
2023/12/22 07:28:06;;;;;;;33.92;18.98;;;;;;;;;;10289634;28;20424;-92
2023/12/22 07:33:08;;;;;;;30.48;19.38;;;;;;;;;;10263762;28;20424;-91
2023/12/22 07:38:11;;;;;;;36.88;19.23;;;;;;;;;;10288403;28;20411;-93
2023/12/22 07:43:15;;;;;;;38.28;22.20;;;;;;;;;;10276090;28;20418;-92
2023/12/22 07:48:18;;;;;;;32.63;20.00;;;;;;;;;;10286675;28;20409;-92
2023/12/22 07:53:21;;;;;;;34.07;21.40;;;;;;;;;;10292495;28;20518;-93
2023/12/22 07:58:24;;;;;;;31.95;20.67;;;;;;;;;;10296120;28;20411;-93
2023/12/22 08:03:27;;;;;;;38.50;22.45;;;;;;;;;;10282729;28;20469;-93
2023/12/22 08:08:29;;;;;;;39.60;22.63;;;;;;;;;;10272267;28;20426;-94
2023/12/22 08:13:33;;;;;;;40.17;22.05;;;;;;;;;;10288499;28;20430;-94
2023/12/22 08:18:36;;;;;;;39.67;21.98;;;;;;;;;;10300882;28;20394;-92
2023/12/22 08:23:38;;;;;;;32.78;19.60;;;;;;;;;;10297402;28;20505;-95
2023/12/22 08:28:42;;;;;;;34.03;19.70;;;;;;;;;;10290391;28;20424;-95
2023/12/22 08:33:45;;;;;;;32.80;19.17;;;;;;;;;;10273307;28;20459;-95
2023/12/22 08:38:47;;;;;;;43.37;24.03;;;;;;;;;;10261737;28;20418;-95
2023/12/22 08:43:51;;;;;;;34.78;19.80;;;;;;;;;;10283107;28;20415;-94
2023/12/22 08:48:53;;;;;;;33.63;20.60;;;;;;;;;;10285891;28;20401;-94
2023/12/22 08:53:56;;;;;;;34.80;19.83;;;;;;;;;;10299503;28;20481;-95
2023/12/22 08:59:00;;;;;;;27.90;18.77;;;;;;;;;;10272573;28;20428;-94
2023/12/22 09:04:02;;;;;;;33.75;18.40;;;;;;;;;;10281498;28;20402;-93
2023/12/22 09:09:06;;;;;;;27.33;18.08;;;;;;;;;;10264692;28;20456;-94
2023/12/22 09:14:10;;;;;;;29.67;18.33;;;;;;;;;;10276107;28;20898;-94
2023/12/22 09:19:12;;;;;;;29.45;18.73;;;;;;;;;;10279555;28;20453;-94
2023/12/22 09:24:16;;;;;;;31.23;18.48;;;;;;;;;;10274037;28;20479;-93
2023/12/22 09:29:21;;;;;;;31.52;17.70;;;;;;;;;;10293736;28;20409;-93
2023/12/22 09:34:26;;;;;;;31.45;18.23;;;;;;;;;;10255614;28;20583;-95
2023/12/22 09:39:29;;;;;;;29.75;17.17;;;;;;;;;;10266286;28;20586;-95
2023/12/22 09:44:34;;;;;;;28.13;17.20;;;;;;;;;;10268761;28;20416;-95
2023/12/22 09:49:38;;;;;;;28.88;17.30;;;;;;;;;;10288358;28;20436;-94
2023/12/22 09:54:41;;;;;;;29.13;16.70;;;;;;;;;;10314423;28;20931;-94
2023/12/22 09:59:46;;;;;;;29.02;16.70;;;;;;;;;;10274413;28;20454;-95
2023/12/22 10:04:49;;;;;;;30.75;15.98;;;;;;;;;;10258185;28;20855;-94
2023/12/22 10:09:53;;;;;;;29.98;16.95;;;;;;;;;;10263506;28;20400;-95
2023/12/22 10:14:57;;;;;;;26.25;16.40;;;;;;;;;;10277049;28;20477;-95
2023/12/22 10:20:00;;;;;;;26.85;16.05;;;;;;;;;;10268931;28;20442;-94
2023/12/22 10:25:02;;;;;;;27.23;15.90;;;;;;;;;;10273356;28;20424;-94
2023/12/22 10:30:08;;;;;;;27.85;16.50;;;;;;;;;;10283779;28;20403;-95
2023/12/22 10:35:11;;;;;;;28.27;16.25;;;;;;;;;;10324627;28;20419;-94
2023/12/22 10:40:14;;;;;;;27.55;16.17;;;;;;;;;;10284282;28;20428;-94
2023/12/22 10:45:19;;;;;;;25.02;16.80;;;;;;;;;;10290211;28;20414;-92
2023/12/22 10:50:21;;;;;;;30.42;17.20;;;;;;;;;;10288240;28;20408;-92
2023/12/22 10:55:24;;;;;;;27.15;16.27;;;;;;;;;;10276328;28;20419;-93
2023/12/22 11:00:28;;;;;;;29.17;17.40;;;;;;;;;;10299438;28;20485;-94
2023/12/22 11:05:33;;;;;;;30.47;17.60;;;;;;;;;;10290278;28;20419;-93
2023/12/22 11:10:38;;;;;;;28.98;17.88;;;;;;;;;;10298538;28;20414;-94
2023/12/22 11:15:42;;;;;;;26.83;17.07;;;;;;;;;;10272983;28;20498;-94
2023/12/22 11:20:45;;;;;;;26.40;16.60;;;;;;;;;;10272932;28;20521;-95
2023/12/22 11:25:53;;;;;;;29.73;17.10;;;;;;;;;;10286090;28;20405;-95
2023/12/22 11:30:59;;;;;;;27.95;16.90;;;;;;;;;;10277701;28;20420;-95
2023/12/22 11:36:04;;;;;;;25.23;15.98;;;;;;;;;;10282498;28;20416;-96
2023/12/22 11:41:07;;;;;;;28.00;17.25;;;;;;;;;;10272186;28;20428;-94
2023/12/22 11:46:11;;;;;;;27.63;17.25;;;;;;;;;;10268139;28;20416;-95
2023/12/22 11:51:15;;;;;;;28.85;17.27;;;;;;;;;;10266981;28;20414;-95
2023/12/22 11:56:18;;;;;;;31.37;18.57;;;;;;;;;;10275581;28;20428;-94
2023/12/22 12:01:24;;;;;;;30.87;18.90;;;;;;;;;;10280272;28;20442;-95
2023/12/22 12:06:36;;;;;;;27.65;17.15;;;;;;;;;;10278453;28;20408;-94
2023/12/22 12:12:12;;;;;;;27.38;17.85;;;;;;;;;;10275507;28;20416;-93
2023/12/22 12:17:18;;;;;;;28.23;17.58;;;;;;;;;;10227191;28;20414;-94
2023/12/22 12:22:24;;;;;;;25.63;16.63;;;;;;;;;;10269778;28;20424;-93
2023/12/22 12:27:27;;;;;;;29.08;17.38;;;;;;;;;;10306606;28;20434;-92
2023/12/22 12:32:31;;;;;;;27.40;16.45;;;;;;;;;;10283839;28;20486;-94
2023/12/22 12:37:33;;;;;;;30.73;17.00;;;;;;;;;;10270060;28;20465;-93
2023/12/22 12:42:37;;;;;;;28.33;16.97;;;;;;;;;;10266752;28;20466;-94
2023/12/22 12:47:41;;;;;;;24.08;16.48;;;;;;;;;;10265085;28;20469;-93
2023/12/22 12:52:43;;;;;;;26.83;16.30;;;;;;;;;;10270657;28;20412;-93
2023/12/22 12:57:49;;;;;;;25.63;15.80;;;;;;;;;;10276206;28;20545;-93
2023/12/22 13:02:55;;;;;;;32.23;21.07;;;;;;;;;;10267234;28;20428;-94
2023/12/22 13:08:08;;;;;;;25.70;16.00;;;;;;;;;;10273712;28;20410;-91
2023/12/22 13:13:10;;;;;;;26.77;15.97;;;;;;;;;;10287801;28;20429;-93
2023/12/22 13:18:14;;;;;;;25.40;15.23;;;;;;;;;;10313895;28;20399;-92
2023/12/22 13:23:19;;;;;;;25.60;15.65;;;;;;;;;;10271888;28;21231;-91
2023/12/22 13:28:26;;;;;;;24.03;15.87;;;;;;;;;;10284801;28;20558;-89
2023/12/22 13:33:34;;;;;;;27.58;17.52;;;;;;;;;;10280928;28;20893;-91
2023/12/22 13:38:37;;;;;;;26.57;16.93;;;;;;;;;;10281332;28;20469;-89
2023/12/22 13:43:39;;;;;;;27.92;17.48;;;;;;;;;;10271854;28;20427;-92
2023/12/22 13:48:44;;;;;;;25.85;17.27;;;;;;;;;;10266580;28;20455;-90
2023/12/22 13:53:50;;;;;;;25.85;16.85;;;;;;;;;;10274575;28;20475;-91
2023/12/22 13:58:52;;;;;;;26.40;17.50;;;;;;;;;;10301852;28;20480;-92
2023/12/22 14:03:57;;;;;;;28.83;17.60;;;;;;;;;;10287314;28;20426;-92
2023/12/22 14:08:59;;;;;;;25.98;17.25;;;;;;;;;;10284956;28;20422;-91
2023/12/22 14:14:02;;;;;;;28.35;17.70;;;;;;;;;;10283882;23;20566;-84
2023/12/22 14:19:06;;;;;;;32.83;18.20;;;;;;;;;;10278547;28;20508;-84
2023/12/22 14:24:08;;;;;;;27.27;18.50;;;;;;;;;;10272911;28;20540;-86
2023/12/22 14:29:11;;;;;;;30.00;19.03;;;;;;;;;;10290868;28;20454;-86
2023/12/22 14:34:15;;;;;;;28.27;19.30;;;;;;;;;;10281765;28;20470;-86
2023/12/22 14:39:17;;;;;;;32.83;19.20;;;;;;;;;;10280542;28;20457;-83
2023/12/22 14:44:20;;;;;;;35.63;19.83;;;;;;;;;;10283845;28;20610;-86
2023/12/22 14:49:24;;;;;;;35.17;21.88;;;;;;;;;;10288292;28;20422;-86
2023/12/22 14:54:26;;;;;;;34.65;22.05;;;;;;;;;;10276189;28;20422;-86
2023/12/22 14:59:29;;;;;;;34.97;22.13;;;;;;;;;;10279519;28;20411;-86
2023/12/22 15:04:38;;;;;;;39.95;22.80;;;;;;;;;;10276875;28;20870;-85
2023/12/22 15:09:41;;;;;;;36.75;21.88;;;;;;;;;;10275908;28;20450;-86
2023/12/22 15:14:46;;;;;;;34.85;20.38;;;;;;;;;;10284219;28;20414;-87
2023/12/22 15:19:50;;;;;;;35.80;21.40;;;;;;;;;;10286489;28;20453;-87
2023/12/22 15:24:52;;;;;;;42.05;23.15;;;;;;;;;;10279995;28;20912;-87
2023/12/22 15:29:55;;;;;;;35.73;21.20;;;;;;;;;;10295471;28;20911;-86
2023/12/22 15:34:59;;;;;;;34.63;22.20;;;;;;;;;;10279545;28;20485;-86
2023/12/22 15:40:01;;;;;;;38.45;24.75;;;;;;;;;;10264720;28;20435;-87
2023/12/22 15:45:05;;;;;;;37.37;23.73;;;;;;;;;;10287531;28;21224;-86
2023/12/22 15:50:10;;;;;;;43.97;25.77;;;;;;;;;;10268607;28;20454;-87
2023/12/22 15:55:17;;;;;;;47.07;26.43;;;;;;;;;;10283428;28;20414;-91
2023/12/22 16:00:20;;;;;;;44.25;25.73;;;;;;;;;;10270082;28;20428;-86
2023/12/22 16:05:24;;;;;;;46.33;25.87;;;;;;;;;;10282364;28;20505;-86
2023/12/22 16:10:26;;;;;;;44.33;25.95;;;;;;;;;;10273764;28;20458;-85
2023/12/22 16:15:29;;;;;;;44.38;25.83;;;;;;;;;;10276324;28;20417;-92
2023/12/22 16:20:32;;;;;;;44.08;25.48;;;;;;;;;;10268030;28;20476;-93
2023/12/22 16:25:35;;;;;;;44.28;26.55;;;;;;;;;;10263631;28;20430;-85
2023/12/22 16:30:38;;;;;;;45.00;28.42;;;;;;;;;;10250204;28;20466;-85
2023/12/22 16:35:42;;;;;;;43.85;26.90;;;;;;;;;;10266422;28;20473;-80
2023/12/22 16:40:44;;;;;;;49.03;28.87;;;;;;;;;;10265174;28;20424;-87
2023/12/22 16:45:47;;;;;;;56.72;29.85;;;;;;;;;;10271336;28;20504;-85
2023/12/22 16:50:50;;;;;;;49.92;29.58;;;;;;;;;;10277763;28;20418;-88
2023/12/22 16:55:53;;;;;;;49.83;28.48;;;;;;;;;;10281238;28;20424;-86
2023/12/22 17:00:55;;;;;;;48.35;30.23;;;;;;;;;;10267052;28;20427;-86
2023/12/22 17:06:03;;;;;;;47.10;29.63;;;;;;;;;;10259938;28;20445;-83
2023/12/22 17:11:06;;;;;;;50.92;30.88;;;;;;;;;;10249526;28;20890;-84
2023/12/22 17:16:09;;;;;;;51.28;30.17;;;;;;;;;;10257229;28;20536;-84
2023/12/22 17:21:15;;;;;;;51.78;31.13;;;;;;;;;;10253658;28;20540;-84
2023/12/22 17:26:17;;;;;;;54.50;32.13;;;;;;;;;;10256675;28;20489;-84
2023/12/22 17:31:20;;;;;;;54.22;31.38;;;;;;;;;;10261487;28;20450;-84
2023/12/22 17:36:24;;;;;;;54.05;29.55;;;;;;;;;;10262863;28;20458;-84
2023/12/22 17:41:26;;;;;;;49.72;29.60;;;;;;;;;;10259727;28;21136;-84
2023/12/22 17:46:33;;;;;;;56.92;31.67;;;;;;;;;;10257431;28;20783;-85
2023/12/22 17:51:38;;;;;;;52.45;32.45;;;;;;;;;;10259478;28;20469;-83
2023/12/22 17:56:40;;;;;;;60.43;34.57;;;;;;;;;;10260630;28;20452;-83
2023/12/22 18:01:44;;;;;;;57.20;33.28;;;;;;;;;;10260440;28;20481;-85
2023/12/22 18:06:48;;;;;;;61.35;34.38;;;;;;;;;;10265522;28;20422;-84
2023/12/22 18:11:50;;;;;;;60.33;34.83;;;;;;;;;;10277061;28;20447;-87
2023/12/22 18:16:53;;;;;;;52.10;30.85;;;;;;;;;;10267878;28;20440;-87
2023/12/22 18:21:56;;;;;;;55.33;31.67;;;;;;;;;;10263363;28;21463;-84
2023/12/22 18:26:59;;;;;;;57.55;32.97;;;;;;;;;;10267892;28;21087;-87
2023/12/22 18:32:01;;;;;;;50.40;31.83;;;;;;;;;;10265283;28;20489;-86
2023/12/22 18:37:05;;;;;;;69.70;40.40;;;;;;;;;;10267635;28;20542;-86
2023/12/22 18:42:07;;;;;;;68.50;38.45;;;;;;;;;;10269438;28;20466;-86
2023/12/22 18:47:10;;;;;;;67.57;37.73;;;;;;;;;;10267730;28;20469;-86
2023/12/22 18:52:14;;;;;;;65.95;38.30;;;;;;;;;;10276721;28;20775;-86
2023/12/22 18:57:16;;;;;;;58.63;35.80;;;;;;;;;;10278081;28;20475;-86
2023/12/22 19:02:18;;;;;;;63.17;36.88;;;;;;;;;;10269319;28;20470;-83
2023/12/22 19:07:22;;;;;;;62.17;37.45;;;;;;;;;;10277166;28;20454;-85
2023/12/22 19:12:25;;;;;;;64.70;37.80;;;;;;;;;;10266476;28;20903;-83
2023/12/22 19:17:29;;;;;;;74.78;41.92;;;;;;;;;;10268903;28;20504;-85
2023/12/22 19:22:41;;;;;;;83.00;43.75;;;;;;;;;;10264383;28;20487;-84
2023/12/22 19:27:45;;;;;;;75.68;41.55;;;;;;;;;;10265316;28;25103;-86
2023/12/22 19:32:49;;;;;;;68.83;38.63;;;;;;;;;;10270397;28;20926;-85
2023/12/22 19:37:55;;;;;;;62.40;36.92;;;;;;;;;;10263706;28;20463;-83
2023/12/22 19:42:57;;;;;;;60.78;35.22;;;;;;;;;;10268207;28;21046;-82
2023/12/22 19:47:59;;;;;;;65.10;37.13;;;;;;;;;;10265476;28;20448;-83
2023/12/22 19:53:03;;;;;;;67.63;36.87;;;;;;;;;;10255554;28;21234;-83
2023/12/22 19:58:06;;;;;;;66.17;37.67;;;;;;;;;;10260712;28;20464;-83
2023/12/22 20:03:09;;;;;;;68.05;37.60;;;;;;;;;;10264655;28;20512;-84
2023/12/22 20:08:12;;;;;;;66.95;37.90;;;;;;;;;;10262605;28;20477;-84
2023/12/22 20:50:13;;;;;;;67.50;39.37;;;;;;;;;;10294102;28;20978;-84
2023/12/22 20:55:15;;;;;;;75.63;43.33;;;;;;;;;;10308080;28;25129;-85
2023/12/22 21:00:18;;;;;;;76.57;43.37;;;;;;;;;;10308889;28;20445;-85
2023/12/22 21:05:23;;;;;;;75.93;42.45;;;;;;;;;;10310516;28;20448;-85
2023/12/22 21:10:25;;;;;;;78.22;42.85;;;;;;;;;;10311723;28;20464;-85
2023/12/22 21:15:31;;;;;;;89.15;48.67;;;;;;;;;;10313792;28;20907;-84
2023/12/22 21:20:40;;;;;;;76.78;43.47;;;;;;;;;;10310913;28;20907;-85
2023/12/22 21:25:45;;;;;;;78.60;44.10;;;;;;;;;;10308639;28;20529;-84
2023/12/22 21:30:53;;;;;;;71.43;41.13;;;;;;;;;;10311248;28;20538;-84
2023/12/22 21:35:57;;;;;;;74.47;41.72;;;;;;;;;;10307469;28;21687;-85
2023/12/22 21:41:00;;;;;;;68.95;40.15;;;;;;;;;;10312486;28;20853;-85
2023/12/22 21:46:02;;;;;;;69.73;39.37;;;;;;;;;;10311377;28;20436;-84
2023/12/22 21:51:08;;;;;;;70.70;38.55;;;;;;;;;;10314794;28;20465;-85
2023/12/22 21:56:35;;;;;;;67.05;37.70;;;;;;;;;;10311678;28;20456;-85
2023/12/22 22:01:45;;;;;;;67.50;38.90;;;;;;;;;;10321290;28;20409;-85
2023/12/22 22:06:51;;;;;;;68.27;39.87;;;;;;;;;;10306763;28;20544;-84
2023/12/22 22:11:53;;;;;;;67.13;39.03;;;;;;;;;;10308936;28;20861;-85
2023/12/22 22:16:56;;;;;;;68.85;38.40;;;;;;;;;;10302422;28;20450;-84
2023/12/22 22:21:59;;;;;;;70.53;37.83;;;;;;;;;;10320916;28;20412;-85
2023/12/22 22:27:03;;;;;;;69.85;37.38;;;;;;;;;;10318826;28;20456;-85
2023/12/22 22:32:05;;;;;;;64.82;37.45;;;;;;;;;;10317337;28;20426;-84
2023/12/22 22:37:10;;;;;;;66.97;40.00;;;;;;;;;;10316105;28;20498;-85
2023/12/22 22:42:21;;;;;;;70.83;39.47;;;;;;;;;;10319054;28;20511;-84
2023/12/22 22:47:26;;;;;;;69.63;39.30;;;;;;;;;;10320220;28;20452;-84
2023/12/22 22:52:31;;;;;;;67.80;38.28;;;;;;;;;;10313855;28;20557;-84
2023/12/22 22:57:33;;;;;;;69.70;39.07;;;;;;;;;;10322277;28;20445;-86
2023/12/22 23:02:35;;;;;;;72.10;39.25;;;;;;;;;;10313724;28;20519;-86
2023/12/22 23:07:39;;;;;;;70.03;38.03;;;;;;;;;;10317112;28;20495;-85
2023/12/22 23:12:41;;;;;;;74.40;41.00;;;;;;;;;;10313028;28;20488;-83
2023/12/22 23:17:44;;;;;;;72.53;39.00;;;;;;;;;;10326542;28;20440;-84
2023/12/22 23:22:55;;;;;;;72.63;39.55;;;;;;;;;;10324191;28;20417;-84
2023/12/22 23:27:57;;;;;;;80.33;42.67;;;;;;;;;;10320309;28;20898;-84
2023/12/22 23:32:59;;;;;;;73.18;39.40;;;;;;;;;;10315317;28;20444;-84
2023/12/22 23:38:03;;;;;;;69.03;37.43;;;;;;;;;;10320678;28;20437;-84
2023/12/22 23:43:06;;;;;;;66.40;37.40;;;;;;;;;;10318400;28;20464;-84
2023/12/22 23:48:08;;;;;;;68.05;37.20;;;;;;;;;;10323586;28;20547;-84
2023/12/22 23:53:12;;;;;;;65.93;35.53;;;;;;;;;;10322156;28;20876;-84
2023/12/22 23:58:14;;;;;;;60.50;35.43;;;;;;;;;;10317049;28;20445;-84
